createdAt,value
2023-02-06T00:00:38.298Z,1.67
2023-02-06T00:03:05.450Z,1.66
2023-02-06T00:05:32.202Z,1.66
2023-02-06T00:07:58.615Z,1.62
2023-02-06T00:10:24.967Z,1.55
2023-02-06T00:12:51.321Z,1.50
2023-02-06T00:15:18.077Z,1.50
2023-02-06T00:17:44.455Z,1.48
2023-02-06T00:20:11.727Z,1.46
2023-02-06T00:22:38.397Z,1.45
2023-02-06T00:25:05.324Z,1.41
2023-02-06T00:27:31.838Z,1.35
2023-02-06T00:29:58.574Z,1.33
2023-02-06T00:32:25.000Z,1.28
2023-02-06T00:34:51.328Z,1.25
2023-02-06T00:37:17.909Z,1.18
2023-02-06T00:39:44.271Z,1.13
2023-02-06T00:42:10.800Z,1.08
2023-02-06T00:44:37.930Z,1.02
2023-02-06T00:47:04.266Z,0.99
2023-02-06T00:49:30.598Z,0.97
2023-02-06T00:51:56.902Z,0.95
2023-02-06T00:54:23.217Z,0.83
2023-02-06T00:56:49.555Z,0.78
2023-02-06T00:59:16.032Z,0.69
2023-02-06T01:01:42.445Z,0.64
2023-02-06T01:04:08.857Z,0.62
2023-02-06T01:06:37.558Z,0.62
2023-02-06T01:09:04.344Z,0.59
2023-02-06T01:11:30.714Z,0.57
2023-02-06T01:13:57.617Z,0.57
2023-02-06T01:16:24.771Z,0.47
2023-02-06T01:18:52.982Z,0.47
2023-02-06T01:21:23.243Z,0.42
2023-02-06T01:23:52.458Z,0.45
2023-02-06T01:26:21.316Z,0.37
2023-02-06T01:28:48.998Z,0.28
2023-02-06T01:31:23.870Z,0.17
2023-02-06T01:33:51.540Z,0.23
2023-02-06T01:36:19.396Z,0.23
2023-02-06T01:38:46.539Z,0.17
2023-02-06T01:41:13.658Z,0.11
2023-02-06T01:43:45.815Z,0.07
2023-02-06T01:46:12.592Z,-0.01
2023-02-06T01:48:49.622Z,0.03
2023-02-06T01:51:23.621Z,0.01
2023-02-06T01:53:55.817Z,0.05
2023-02-06T01:56:22.346Z,0.01
2023-02-06T01:58:53.409Z,-0.06
2023-02-06T02:01:20.955Z,-0.05
2023-02-06T02:03:50.291Z,-0.10
2023-02-06T02:06:20.662Z,-0.06
2023-02-06T02:08:49.822Z,-0.10
2023-02-06T02:11:26.850Z,-0.11
2023-02-06T02:13:54.493Z,-0.13
2023-02-06T02:16:49.728Z,-0.12
2023-02-06T02:19:53.707Z,-0.10
2023-02-06T02:22:32.668Z,-0.18
2023-02-06T02:25:17.925Z,-0.19
2023-02-06T02:28:02.931Z,-0.25
2023-02-06T02:30:59.666Z,-0.23
2023-02-06T02:33:30.423Z,-0.18
2023-02-06T02:36:08.399Z,-0.10
2023-02-06T02:38:39.761Z,-0.13
2023-02-06T02:41:21.946Z,-0.14
2023-02-06T02:44:01.237Z,-0.14
2023-02-06T02:46:44.744Z,-0.14
2023-02-06T02:49:15.235Z,-0.19
2023-02-06T02:51:42.687Z,-0.18
2023-02-06T02:54:09.628Z,-0.22
2023-02-06T02:56:37.508Z,-0.29
2023-02-06T02:59:13.166Z,-0.35
2023-02-06T03:01:48.321Z,-0.40
2023-02-06T03:04:20.927Z,-0.43
2023-02-06T03:06:59.539Z,-0.47
2023-02-06T03:09:45.650Z,-0.53
2023-02-06T03:12:22.840Z,-0.63
2023-02-06T03:14:58.138Z,-0.64
2023-02-06T03:17:35.786Z,-0.64
2023-02-06T03:20:05.610Z,-0.65
2023-02-06T03:22:33.390Z,-0.66
2023-02-06T03:25:02.752Z,-0.67
2023-02-06T03:27:30.987Z,-0.68
2023-02-06T03:29:58.948Z,-0.68
2023-02-06T03:32:29.662Z,-0.72
2023-02-06T03:35:16.132Z,-0.76
2023-02-06T03:37:42.955Z,-0.78
2023-02-06T03:40:10.911Z,-0.82
2023-02-06T03:42:45.458Z,-0.83
2023-02-06T03:45:16.828Z,-0.86
2023-02-06T03:47:46.490Z,-0.85
2023-02-06T03:50:15.214Z,-0.88
2023-02-06T03:52:46.987Z,-0.92
2023-02-06T03:55:17.980Z,-0.95
2023-02-06T03:57:50.164Z,-0.96
2023-02-06T04:00:16.992Z,-1.00
2023-02-06T04:02:47.310Z,-1.04
2023-02-06T04:05:16.319Z,-0.97
2023-02-06T04:07:42.830Z,-1.07
2023-02-06T04:10:09.458Z,-1.06
2023-02-06T04:12:36.100Z,-1.12
2023-02-06T04:15:02.843Z,-1.12
2023-02-06T04:17:46.434Z,-1.16
2023-02-06T04:20:15.674Z,-1.17
2023-02-06T04:22:42.470Z,-1.15
2023-02-06T04:25:08.858Z,-1.17
2023-02-06T04:27:36.795Z,-1.21
2023-02-06T04:30:04.568Z,-1.15
2023-02-06T04:32:30.901Z,-1.14
2023-02-06T04:34:57.279Z,-1.14
2023-02-06T04:37:23.716Z,-1.16
2023-02-06T04:39:50.042Z,-1.14
2023-02-06T04:42:16.360Z,-1.10
2023-02-06T04:44:42.733Z,-1.12
2023-02-06T04:47:09.082Z,-1.12
2023-02-06T04:49:35.428Z,-1.15
2023-02-06T04:52:01.769Z,-1.14
2023-02-06T04:54:28.168Z,-1.16
2023-02-06T04:56:54.601Z,-1.15
2023-02-06T04:59:20.954Z,-1.13
2023-02-06T05:01:48.071Z,-1.12
2023-02-06T05:04:14.459Z,-1.11
2023-02-06T05:06:40.791Z,-1.09
2023-02-06T05:09:07.177Z,-1.08
2023-02-06T05:11:33.792Z,-1.05
2023-02-06T05:14:00.140Z,-0.95
2023-02-06T05:16:26.723Z,-1.06
2023-02-06T05:18:55.293Z,-1.05
2023-02-06T05:21:22.896Z,-1.09
2023-02-06T05:23:49.354Z,-1.10
2023-02-06T05:26:16.044Z,-1.12
2023-02-06T05:28:42.435Z,-1.14
2023-02-06T05:31:09.122Z,-1.17
2023-02-06T05:33:35.549Z,-1.20
2023-02-06T05:36:07.180Z,-1.21
2023-02-06T05:38:33.931Z,-1.18
2023-02-06T05:41:00.682Z,-1.07
2023-02-06T05:43:27.062Z,-1.00
2023-02-06T05:45:53.528Z,-0.96
2023-02-06T05:48:19.950Z,-0.89
2023-02-06T05:50:49.429Z,-0.92
2023-02-06T05:53:17.168Z,-1.01
2023-02-06T05:55:43.538Z,-1.04
2023-02-06T05:58:11.378Z,-1.09
2023-02-06T06:00:37.865Z,-1.08
2023-02-06T06:03:04.309Z,-0.98
2023-02-06T06:05:30.631Z,-0.92
2023-02-06T06:07:56.960Z,-0.88
2023-02-06T06:10:23.353Z,-0.85
2023-02-06T06:12:49.753Z,-0.79
2023-02-06T06:15:16.210Z,-0.74
2023-02-06T06:17:42.534Z,-0.69
2023-02-06T06:20:09.323Z,-0.69
2023-02-06T06:22:35.688Z,-0.73
2023-02-06T06:25:02.111Z,-0.72
2023-02-06T06:27:28.439Z,-0.65
2023-02-06T06:29:54.799Z,-0.67
2023-02-06T06:32:21.792Z,-0.67
2023-02-06T06:34:48.114Z,-0.66
2023-02-06T06:37:14.502Z,-0.65
2023-02-06T06:39:40.953Z,-0.64
2023-02-06T06:42:08.068Z,-0.62
2023-02-06T06:44:34.396Z,-0.57
2023-02-06T06:47:00.809Z,-0.59
2023-02-06T06:49:28.980Z,-0.56
2023-02-06T06:51:55.419Z,-0.56
2023-02-06T06:54:22.706Z,-0.51
2023-02-06T06:56:49.048Z,-0.54
2023-02-06T06:59:15.408Z,-0.56
2023-02-06T07:01:41.763Z,-0.54
2023-02-06T07:04:08.229Z,-0.52
2023-02-06T07:06:34.606Z,-0.45
2023-02-06T07:09:00.951Z,-0.43
2023-02-06T07:11:27.578Z,-0.38
2023-02-06T07:13:53.879Z,-0.35
2023-02-06T07:16:20.284Z,-0.31
2023-02-06T07:18:47.283Z,-0.31
2023-02-06T07:21:15.776Z,-0.28
2023-02-06T07:23:42.338Z,-0.26
2023-02-06T07:26:08.773Z,-0.22
2023-02-06T07:28:35.140Z,-0.18
2023-02-06T07:31:02.563Z,-0.14
2023-02-06T07:33:28.979Z,-0.10
2023-02-06T07:35:55.403Z,-0.12
2023-02-06T07:38:21.986Z,-0.10
2023-02-06T07:40:48.316Z,-0.09
2023-02-06T07:43:14.735Z,-0.06
2023-02-06T07:45:41.463Z,-0.08
2023-02-06T07:48:08.117Z,-0.07
2023-02-06T07:50:35.115Z,-0.07
2023-02-06T07:53:02.355Z,-0.05
2023-02-06T07:55:29.576Z,-0.04
2023-02-06T07:57:56.246Z,0.06
2023-02-06T08:00:22.683Z,0.08
2023-02-06T08:02:49.017Z,0.00
2023-02-06T08:05:15.355Z,0.05
2023-02-06T08:07:41.717Z,0.07
2023-02-06T08:10:08.583Z,0.10
2023-02-06T08:12:34.905Z,0.10
2023-02-06T08:15:01.310Z,0.13
2023-02-06T08:17:28.041Z,0.16
2023-02-06T08:19:54.424Z,0.21
2023-02-06T08:22:20.879Z,0.24
2023-02-06T08:24:47.578Z,0.29
2023-02-06T08:27:13.928Z,0.31
2023-02-06T08:29:42.446Z,0.37
2023-02-06T08:32:09.888Z,0.42
2023-02-06T08:34:38.001Z,0.46
2023-02-06T08:37:04.438Z,0.48
2023-02-06T08:39:30.834Z,0.52
2023-02-06T08:41:57.179Z,0.51
2023-02-06T08:44:23.570Z,0.48
2023-02-06T08:46:56.186Z,0.55
2023-02-06T08:49:26.919Z,0.45
2023-02-06T08:51:54.735Z,0.48
2023-02-06T08:54:23.275Z,0.50
2023-02-06T08:56:51.412Z,0.56
2023-02-06T08:59:19.427Z,0.50
2023-02-06T09:01:46.559Z,0.54
2023-02-06T09:04:14.015Z,0.58
2023-02-06T09:06:42.972Z,0.59
2023-02-06T09:09:11.103Z,0.66
2023-02-06T09:11:38.663Z,0.59
2023-02-06T09:14:07.295Z,0.57
2023-02-06T09:16:34.757Z,0.54
2023-02-06T09:19:02.227Z,0.60
2023-02-06T09:21:30.917Z,0.52
2023-02-06T09:24:01.557Z,0.55
2023-02-06T09:26:30.769Z,0.64
2023-02-06T09:29:02.912Z,0.62
2023-02-06T09:31:30.641Z,0.66
2023-02-06T09:33:57.888Z,0.63
2023-02-06T09:36:24.306Z,0.66
2023-02-06T09:38:57.121Z,0.72
2023-02-06T09:41:26.499Z,0.81
2023-02-06T09:43:57.792Z,0.77
2023-02-06T09:46:28.963Z,0.87
2023-02-06T09:48:58.523Z,0.98
2023-02-06T09:51:48.101Z,1.08
2023-02-06T09:54:39.112Z,1.21
2023-02-06T09:57:12.906Z,1.27
2023-02-06T09:59:44.914Z,1.33
2023-02-06T10:02:47.616Z,1.43
2023-02-06T10:05:25.004Z,1.50
2023-02-06T10:08:23.857Z,1.56
2023-02-06T10:10:54.828Z,1.63
2023-02-06T10:13:38.589Z,1.62
2023-02-06T10:16:19.508Z,1.65
2023-02-06T10:18:49.962Z,1.69
2023-02-06T10:21:51.914Z,1.80
2023-02-06T10:24:24.371Z,1.88
2023-02-06T10:26:53.482Z,1.94
2023-02-06T10:29:29.167Z,2.03
2023-02-06T10:32:34.220Z,2.15
2023-02-06T10:35:10.386Z,2.17
2023-02-06T10:37:58.943Z,2.19
2023-02-06T10:40:43.041Z,2.16
2023-02-06T10:43:54.245Z,2.24
2023-02-06T10:46:40.052Z,2.29
2023-02-06T10:49:25.566Z,2.37
2023-02-06T10:51:58.293Z,2.44
2023-02-06T10:54:31.585Z,2.45
2023-02-06T10:57:00.536Z,2.30
2023-02-06T10:59:34.264Z,2.31
2023-02-06T11:02:17.365Z,2.30
2023-02-06T11:05:03.393Z,2.34
2023-02-06T11:07:36.490Z,2.45
2023-02-06T11:10:06.994Z,2.48
2023-02-06T11:12:40.816Z,2.56
2023-02-06T11:15:32.542Z,2.61
2023-02-06T11:18:01.160Z,2.72
2023-02-06T11:20:31.843Z,2.84
2023-02-06T11:23:26.978Z,2.97
2023-02-06T11:25:58.853Z,3.04
2023-02-06T11:28:26.451Z,3.06
2023-02-06T11:31:02.458Z,3.11
2023-02-06T11:33:47.318Z,3.16
2023-02-06T11:36:25.568Z,3.29
2023-02-06T11:38:56.086Z,3.35
2023-02-06T11:41:22.552Z,3.44
2023-02-06T11:43:50.742Z,3.56
2023-02-06T11:46:27.855Z,3.55
2023-02-06T11:48:54.180Z,3.55
2023-02-06T11:51:21.571Z,3.63
2023-02-06T11:54:02.552Z,3.68
2023-02-06T11:56:30.627Z,3.74
2023-02-06T11:59:19.324Z,3.83
2023-02-06T12:01:47.497Z,3.91
2023-02-06T12:04:42.571Z,3.92
2023-02-06T12:07:36.819Z,3.98
2023-02-06T12:10:13.389Z,4.01
2023-02-06T12:12:45.605Z,4.10
2023-02-06T12:15:44.815Z,4.12
2023-02-06T12:18:20.552Z,4.20
2023-02-06T12:20:50.992Z,4.21
2023-02-06T12:23:28.499Z,4.31
2023-02-06T12:25:59.518Z,4.29
2023-02-06T12:28:36.883Z,4.30
2023-02-06T12:31:10.996Z,4.32
2023-02-06T12:33:44.104Z,4.38
2023-02-06T12:36:20.750Z,4.32
2023-02-06T12:39:16.641Z,4.39
2023-02-06T12:42:09.386Z,4.41
2023-02-06T12:44:47.808Z,4.47
2023-02-06T12:47:29.223Z,4.51
2023-02-06T12:50:16.121Z,4.53
2023-02-06T12:52:51.516Z,4.51
2023-02-06T12:55:22.553Z,4.52
2023-02-06T12:57:49.601Z,4.50
2023-02-06T13:00:34.331Z,4.53
2023-02-06T13:03:06.701Z,4.65
2023-02-06T13:05:42.995Z,4.77
2023-02-06T13:08:14.580Z,4.73
2023-02-06T13:10:42.418Z,4.71
2023-02-06T13:13:27.154Z,4.67
2023-02-06T13:15:55.247Z,4.75
2023-02-06T13:18:50.669Z,4.80
2023-02-06T13:21:19.569Z,4.86
2023-02-06T13:24:19.080Z,4.90
2023-02-06T13:26:51.297Z,4.97
2023-02-06T13:29:25.747Z,5.01
2023-02-06T13:32:10.811Z,5.05
2023-02-06T13:34:43.117Z,5.08
2023-02-06T13:37:19.844Z,5.20
2023-02-06T13:39:47.705Z,5.18
2023-02-06T13:42:46.364Z,5.26
2023-02-06T13:45:35.912Z,5.37
2023-02-06T13:48:05.556Z,5.38
2023-02-06T13:50:57.286Z,5.38
2023-02-06T13:53:26.470Z,5.44
2023-02-06T13:56:22.031Z,5.44
2023-02-06T13:58:51.561Z,5.51
2023-02-06T14:01:25.943Z,5.54
2023-02-06T14:03:54.067Z,5.52
2023-02-06T14:06:32.034Z,5.58
2023-02-06T14:09:10.500Z,5.54
2023-02-06T14:12:14.954Z,5.57
2023-02-06T14:14:51.182Z,5.59
2023-02-06T14:17:46.321Z,5.59
2023-02-06T14:20:42.337Z,5.67
2023-02-06T14:23:14.567Z,5.67
2023-02-06T14:25:59.159Z,5.72
2023-02-06T14:28:50.821Z,5.58
2023-02-06T14:31:37.465Z,5.62
2023-02-06T14:34:18.113Z,5.63
2023-02-06T14:37:02.765Z,5.57
2023-02-06T14:39:42.469Z,5.57
2023-02-06T14:42:18.426Z,5.44
2023-02-06T14:44:50.414Z,5.47
2023-02-06T14:47:22.366Z,5.46
2023-02-06T14:49:49.356Z,5.45
2023-02-06T14:52:21.416Z,5.48
2023-02-06T14:54:47.844Z,5.47
2023-02-06T14:57:19.793Z,5.44
2023-02-06T15:00:13.605Z,5.39
2023-02-06T15:02:40.122Z,5.36
2023-02-06T15:05:06.579Z,5.39
2023-02-06T15:07:38.710Z,5.45
2023-02-06T15:10:15.951Z,5.38
2023-02-06T15:12:51.244Z,5.36
2023-02-06T15:15:24.039Z,5.41
2023-02-06T15:18:01.412Z,5.38
2023-02-06T15:20:40.125Z,5.36
2023-02-06T15:23:18.055Z,5.41
2023-02-06T15:25:59.340Z,5.42
2023-02-06T15:28:29.033Z,5.40
2023-02-06T15:30:59.080Z,5.42
2023-02-06T15:33:28.518Z,5.35
2023-02-06T15:35:57.673Z,5.39
2023-02-06T15:38:26.355Z,5.43
2023-02-06T15:40:57.812Z,5.43
2023-02-06T15:43:25.709Z,5.41
2023-02-06T15:45:55.940Z,5.43
2023-02-06T15:48:36.798Z,5.45
2023-02-06T15:51:18.409Z,5.42
2023-02-06T15:53:48.229Z,5.44
2023-02-06T15:56:29.020Z,5.45
2023-02-06T15:58:58.674Z,5.37
2023-02-06T16:01:26.472Z,5.34
2023-02-06T16:03:59.277Z,5.27
2023-02-06T16:06:25.722Z,5.33
2023-02-06T16:08:56.182Z,5.33
2023-02-06T16:11:50.744Z,5.24
2023-02-06T16:14:21.547Z,5.19
2023-02-06T16:17:01.393Z,5.12
2023-02-06T16:19:46.794Z,5.05
2023-02-06T16:22:21.782Z,4.99
2023-02-06T16:24:49.737Z,4.93
2023-02-06T16:27:21.692Z,4.90
2023-02-06T16:29:52.464Z,4.81
2023-02-06T16:32:29.762Z,4.75
2023-02-06T16:34:56.348Z,4.68
2023-02-06T16:37:27.000Z,4.64
2023-02-06T16:39:54.167Z,4.61
2023-02-06T16:42:23.568Z,4.56
2023-02-06T16:44:58.038Z,4.54
2023-02-06T16:47:24.684Z,4.45
2023-02-06T16:49:51.962Z,4.44
2023-02-06T16:52:23.732Z,4.38
2023-02-06T16:54:50.435Z,4.37
2023-02-06T16:57:38.976Z,4.32
2023-02-06T17:00:09.415Z,4.25
2023-02-06T17:02:35.818Z,4.24
2023-02-06T17:05:06.808Z,4.18
2023-02-06T17:07:34.889Z,4.15
2023-02-06T17:10:01.845Z,4.11
2023-02-06T17:12:28.691Z,4.06
2023-02-06T17:14:55.152Z,3.98
2023-02-06T17:17:23.003Z,3.94
2023-02-06T17:19:51.764Z,3.96
2023-02-06T17:22:18.397Z,3.95
2023-02-06T17:24:44.772Z,3.93
2023-02-06T17:27:15.329Z,3.93
2023-02-06T17:29:41.761Z,3.91
2023-02-06T17:32:09.141Z,3.97
2023-02-06T17:34:37.261Z,3.96
2023-02-06T17:37:04.961Z,3.92
2023-02-06T17:39:31.320Z,3.89
2023-02-06T17:41:57.751Z,3.87
2023-02-06T17:44:24.291Z,3.86
2023-02-06T17:46:50.644Z,3.81
2023-02-06T17:49:17.356Z,3.81
2023-02-06T17:51:44.828Z,3.74
2023-02-06T17:54:12.319Z,3.70
2023-02-06T17:56:39.049Z,3.65
2023-02-06T17:59:05.505Z,3.60
2023-02-06T18:01:31.934Z,3.55
2023-02-06T18:04:00.670Z,3.50
2023-02-06T18:06:31.085Z,3.48
2023-02-06T18:08:57.432Z,3.42
2023-02-06T18:11:23.793Z,3.34
2023-02-06T18:13:50.651Z,3.23
2023-02-06T18:16:23.050Z,3.16
2023-02-06T18:18:50.128Z,3.11
2023-02-06T18:21:19.415Z,2.95
2023-02-06T18:23:47.030Z,2.90
2023-02-06T18:26:14.176Z,2.85
2023-02-06T18:28:40.858Z,2.83
2023-02-06T18:31:21.590Z,2.78
2023-02-06T18:33:48.048Z,2.82
2023-02-06T18:36:14.521Z,2.80
2023-02-06T18:38:41.399Z,2.79
2023-02-06T18:41:27.791Z,2.80
2023-02-06T18:43:54.190Z,2.75
2023-02-06T18:46:20.795Z,2.74
2023-02-06T18:48:47.369Z,2.74
2023-02-06T18:51:13.736Z,2.71
2023-02-06T18:53:40.095Z,2.71
2023-02-06T18:56:06.714Z,2.70
2023-02-06T18:58:33.397Z,2.73
2023-02-06T19:00:59.793Z,2.71
2023-02-06T19:03:26.163Z,2.68
2023-02-06T19:05:52.532Z,2.68
2023-02-06T19:08:19.572Z,2.75
2023-02-06T19:10:45.946Z,2.69
2023-02-06T19:13:12.341Z,2.69
2023-02-06T19:15:38.799Z,2.65
2023-02-06T19:18:05.987Z,2.60
2023-02-06T19:20:32.311Z,2.52
2023-02-06T19:22:58.672Z,2.54
2023-02-06T19:25:25.076Z,2.48
2023-02-06T19:27:51.480Z,2.47
2023-02-06T19:30:18.001Z,2.44
2023-02-06T19:32:44.436Z,2.47
2023-02-06T19:35:11.892Z,2.39
2023-02-06T19:37:38.243Z,2.34
2023-02-06T19:40:04.868Z,2.22
2023-02-06T19:42:31.246Z,2.11
2023-02-06T19:44:57.606Z,2.08
2023-02-06T19:47:24.056Z,2.03
2023-02-06T19:49:52.283Z,1.96
2023-02-06T19:52:19.173Z,1.93
2023-02-06T19:54:47.597Z,1.96
2023-02-06T19:57:14.796Z,1.97
2023-02-06T19:59:42.043Z,1.98
2023-02-06T20:02:14.279Z,2.00
2023-02-06T20:04:41.358Z,2.00
2023-02-06T20:07:07.726Z,2.00
2023-02-06T20:09:34.725Z,2.00
2023-02-06T20:12:01.075Z,1.94
2023-02-06T20:14:28.030Z,1.86
2023-02-06T20:16:54.940Z,1.73
2023-02-06T20:19:24.676Z,1.61
2023-02-06T20:21:54.116Z,1.55
2023-02-06T20:24:24.564Z,1.54
2023-02-06T20:26:55.940Z,1.60
2023-02-06T20:29:28.837Z,1.63
2023-02-06T20:31:56.241Z,1.65
2023-02-06T20:34:24.313Z,1.66
2023-02-06T20:36:51.482Z,1.68
2023-02-06T20:39:21.381Z,1.68
2023-02-06T20:41:49.509Z,1.64
2023-02-06T20:44:16.567Z,1.59
2023-02-06T20:46:43.548Z,1.56
2023-02-06T20:49:16.228Z,1.47
2023-02-06T20:51:42.949Z,1.40
2023-02-06T20:54:11.654Z,1.31
2023-02-06T20:56:39.609Z,1.28
2023-02-06T20:59:06.798Z,1.21
2023-02-06T21:01:33.659Z,1.19
2023-02-06T21:04:05.785Z,1.13
2023-02-06T21:06:34.316Z,1.09
2023-02-06T21:09:01.516Z,1.04
2023-02-06T21:11:30.446Z,1.06
2023-02-06T21:14:02.516Z,1.05
2023-02-06T21:16:30.455Z,1.10
2023-02-06T21:18:58.538Z,1.11
2023-02-06T21:21:32.735Z,1.11
2023-02-06T21:23:59.384Z,1.16
2023-02-06T21:26:26.928Z,1.18
2023-02-06T21:28:53.586Z,1.20
2023-02-06T21:31:23.566Z,1.31
2023-02-06T21:33:51.692Z,1.24
2023-02-06T21:36:18.791Z,1.23
2023-02-06T21:38:45.137Z,1.16
2023-02-06T21:41:14.893Z,1.14
2023-02-06T21:43:41.934Z,1.06
2023-02-06T21:46:10.018Z,0.91
2023-02-06T21:48:36.853Z,0.77
2023-02-06T21:51:22.936Z,0.74
2023-02-06T21:53:49.447Z,0.48
2023-02-06T21:56:19.740Z,0.42
2023-02-06T21:58:47.295Z,0.49
2023-02-06T22:01:22.314Z,0.52
2023-02-06T22:03:49.641Z,0.52
2023-02-06T22:06:16.609Z,0.53
2023-02-06T22:08:45.210Z,0.55
2023-02-06T22:11:28.304Z,0.59
2023-02-06T22:14:03.662Z,0.51
2023-02-06T22:16:30.726Z,0.52
2023-02-06T22:18:57.441Z,0.55
2023-02-06T22:21:26.371Z,0.53
2023-02-06T22:23:56.441Z,0.70
2023-02-06T22:26:22.943Z,0.67
2023-02-06T22:28:49.342Z,0.61
2023-02-06T22:31:17.451Z,0.56
2023-02-06T22:33:44.553Z,0.54
2023-02-06T22:36:13.957Z,0.57
2023-02-06T22:38:41.610Z,0.54
2023-02-06T22:41:11.007Z,0.50
2023-02-06T22:43:38.939Z,0.54
2023-02-06T22:46:06.645Z,0.60
2023-02-06T22:48:33.566Z,0.61
2023-02-06T22:51:07.579Z,0.55
2023-02-06T22:53:34.495Z,0.49
2023-02-06T22:56:22.332Z,0.45
2023-02-06T22:58:49.563Z,0.33
2023-02-06T23:01:17.768Z,0.37
2023-02-06T23:03:44.222Z,0.37
2023-02-06T23:06:13.364Z,0.30
2023-02-06T23:08:40.914Z,0.25
2023-02-06T23:11:08.626Z,0.28
2023-02-06T23:13:35.679Z,0.26
2023-02-06T23:16:02.644Z,0.25
2023-02-06T23:18:29.531Z,0.22
2023-02-06T23:21:05.026Z,0.15
2023-02-06T23:23:31.430Z,0.16
2023-02-06T23:25:57.891Z,0.17
2023-02-06T23:28:25.304Z,0.07
2023-02-06T23:30:52.697Z,0.01
2023-02-06T23:33:19.910Z,-0.03
2023-02-06T23:35:46.556Z,-0.02
2023-02-06T23:38:13.168Z,0.01
2023-02-06T23:40:39.805Z,-0.05
2023-02-06T23:43:06.540Z,-0.02
2023-02-06T23:45:33.817Z,-0.08
2023-02-06T23:48:00.207Z,-0.23
2023-02-06T23:50:27.049Z,-0.23
2023-02-06T23:52:53.572Z,-0.22
2023-02-06T23:55:21.291Z,-0.27
2023-02-06T23:57:47.666Z,-0.35
